sensor_id;sensor_type;location;lat;lon;timestamp;P1;durP1;ratioP1;P2;durP2;ratioP2
21330;SDS011;10824;51.632;4.950;2023-05-10T00:01:36;9.02;;;4.90;;
21330;SDS011;10824;51.632;4.950;2023-05-10T00:04:02;12.13;;;5.50;;
21330;SDS011;10824;51.632;4.950;2023-05-10T00:06:30;11.02;;;4.72;;
21330;SDS011;10824;51.632;4.950;2023-05-10T00:08:57;12.02;;;4.55;;
21330;SDS011;10824;51.632;4.950;2023-05-10T00:11:25;14.60;;;4.10;;
21330;SDS011;10824;51.632;4.950;2023-05-10T00:13:52;10.98;;;5.15;;
21330;SDS011;10824;51.632;4.950;2023-05-10T00:16:19;10.52;;;4.22;;
21330;SDS011;10824;51.632;4.950;2023-05-10T00:18:47;12.20;;;4.65;;
21330;SDS011;10824;51.632;4.950;2023-05-10T00:21:14;11.07;;;5.22;;
21330;SDS011;10824;51.632;4.950;2023-05-10T00:23:41;11.02;;;4.47;;
21330;SDS011;10824;51.632;4.950;2023-05-10T00:26:08;12.57;;;5.35;;
21330;SDS011;10824;51.632;4.950;2023-05-10T00:28:36;7.82;;;4.80;;
21330;SDS011;10824;51.632;4.950;2023-05-10T00:31:03;11.93;;;4.95;;
21330;SDS011;10824;51.632;4.950;2023-05-10T00:33:30;16.98;;;5.25;;
21330;SDS011;10824;51.632;4.950;2023-05-10T00:35:57;15.27;;;4.90;;
21330;SDS011;10824;51.632;4.950;2023-05-10T00:38:24;13.45;;;4.78;;
21330;SDS011;10824;51.632;4.950;2023-05-10T00:40:52;13.82;;;5.15;;
21330;SDS011;10824;51.632;4.950;2023-05-10T00:43:26;14.10;;;4.35;;
21330;SDS011;10824;51.632;4.950;2023-05-10T00:45:53;10.65;;;4.93;;
21330;SDS011;10824;51.632;4.950;2023-05-10T00:48:21;11.00;;;4.80;;
21330;SDS011;10824;51.632;4.950;2023-05-10T00:50:48;12.30;;;4.50;;
21330;SDS011;10824;51.632;4.950;2023-05-10T00:53:17;13.27;;;4.75;;
21330;SDS011;10824;51.632;4.950;2023-05-10T00:55:44;10.52;;;4.07;;
21330;SDS011;10824;51.632;4.950;2023-05-10T00:58:12;9.60;;;4.35;;
21330;SDS011;10824;51.632;4.950;2023-05-10T01:00:41;12.20;;;4.50;;
21330;SDS011;10824;51.632;4.950;2023-05-10T01:03:10;14.25;;;5.05;;
21330;SDS011;10824;51.632;4.950;2023-05-10T01:05:38;9.65;;;5.03;;
21330;SDS011;10824;51.632;4.950;2023-05-10T01:08:04;11.45;;;5.35;;
21330;SDS011;10824;51.632;4.950;2023-05-10T01:10:32;13.55;;;4.32;;
21330;SDS011;10824;51.632;4.950;2023-05-10T01:13:01;11.88;;;5.05;;
21330;SDS011;10824;51.632;4.950;2023-05-10T01:15:29;11.18;;;4.53;;
21330;SDS011;10824;51.632;4.950;2023-05-10T01:17:57;11.57;;;5.03;;
21330;SDS011;10824;51.632;4.950;2023-05-10T01:20:25;10.05;;;4.70;;
21330;SDS011;10824;51.632;4.950;2023-05-10T01:25:43;11.38;;;6.00;;
21330;SDS011;10824;51.632;4.950;2023-05-10T01:31:18;10.23;;;5.13;;
21330;SDS011;10824;51.632;4.950;2023-05-10T01:34:07;9.15;;;4.57;;
21330;SDS011;10824;51.632;4.950;2023-05-10T01:39:31;16.73;;;8.57;;
21330;SDS011;10824;51.632;4.950;2023-05-10T01:42:10;17.63;;;5.88;;
21330;SDS011;10824;51.632;4.950;2023-05-10T01:44:42;13.38;;;6.32;;
21330;SDS011;10824;51.632;4.950;2023-05-10T01:47:17;12.48;;;6.63;;
21330;SDS011;10824;51.632;4.950;2023-05-10T01:49:52;12.70;;;6.07;;
21330;SDS011;10824;51.632;4.950;2023-05-10T01:52:33;16.70;;;6.93;;
21330;SDS011;10824;51.632;4.950;2023-05-10T01:55:05;18.08;;;7.03;;
21330;SDS011;10824;51.632;4.950;2023-05-10T01:57:35;18.88;;;8.20;;
21330;SDS011;10824;51.632;4.950;2023-05-10T02:00:06;16.42;;;7.45;;
21330;SDS011;10824;51.632;4.950;2023-05-10T02:02:40;18.88;;;7.32;;
21330;SDS011;10824;51.632;4.950;2023-05-10T02:07:40;21.45;;;7.05;;
21330;SDS011;10824;51.632;4.950;2023-05-10T02:10:09;14.40;;;7.05;;
21330;SDS011;10824;51.632;4.950;2023-05-10T02:12:45;16.33;;;8.05;;
21330;SDS011;10824;51.632;4.950;2023-05-10T02:15:16;16.13;;;6.95;;
21330;SDS011;10824;51.632;4.950;2023-05-10T02:17:47;18.83;;;8.38;;
21330;SDS011;10824;51.632;4.950;2023-05-10T02:20:14;15.73;;;6.85;;
21330;SDS011;10824;51.632;4.950;2023-05-10T02:22:44;15.50;;;7.47;;
21330;SDS011;10824;51.632;4.950;2023-05-10T02:25:14;20.48;;;9.18;;
21330;SDS011;10824;51.632;4.950;2023-05-10T02:27:43;16.23;;;8.02;;
21330;SDS011;10824;51.632;4.950;2023-05-10T02:30:13;18.70;;;7.75;;
21330;SDS011;10824;51.632;4.950;2023-05-10T02:32:42;16.05;;;6.97;;
21330;SDS011;10824;51.632;4.950;2023-05-10T02:35:10;18.30;;;7.35;;
21330;SDS011;10824;51.632;4.950;2023-05-10T02:37:40;17.38;;;7.18;;
21330;SDS011;10824;51.632;4.950;2023-05-10T02:40:08;17.50;;;7.63;;
21330;SDS011;10824;51.632;4.950;2023-05-10T02:42:37;14.30;;;6.63;;
21330;SDS011;10824;51.632;4.950;2023-05-10T02:45:10;15.07;;;6.43;;
21330;SDS011;10824;51.632;4.950;2023-05-10T02:47:41;18.90;;;6.85;;
21330;SDS011;10824;51.632;4.950;2023-05-10T02:50:08;17.48;;;7.38;;
21330;SDS011;10824;51.632;4.950;2023-05-10T02:52:38;19.83;;;7.90;;
21330;SDS011;10824;51.632;4.950;2023-05-10T02:57:38;12.20;;;6.18;;
21330;SDS011;10824;51.632;4.950;2023-05-10T03:00:11;15.57;;;6.43;;
21330;SDS011;10824;51.632;4.950;2023-05-10T03:02:39;18.92;;;7.97;;
21330;SDS011;10824;51.632;4.950;2023-05-10T03:05:07;21.13;;;8.55;;
21330;SDS011;10824;51.632;4.950;2023-05-10T03:07:35;14.25;;;6.20;;
21330;SDS011;10824;51.632;4.950;2023-05-10T03:10:02;24.58;;;8.05;;
21330;SDS011;10824;51.632;4.950;2023-05-10T03:15:11;17.10;;;6.47;;
21330;SDS011;10824;51.632;4.950;2023-05-10T03:17:55;13.40;;;7.03;;
21330;SDS011;10824;51.632;4.950;2023-05-10T03:20:46;12.68;;;6.55;;
21330;SDS011;10824;51.632;4.950;2023-05-10T03:25:52;18.85;;;7.18;;
21330;SDS011;10824;51.632;4.950;2023-05-10T03:28:20;17.05;;;8.77;;
21330;SDS011;10824;51.632;4.950;2023-05-10T03:30:48;23.73;;;7.50;;
21330;SDS011;10824;51.632;4.950;2023-05-10T03:33:16;15.98;;;8.52;;
21330;SDS011;10824;51.632;4.950;2023-05-10T03:35:45;15.95;;;6.38;;
21330;SDS011;10824;51.632;4.950;2023-05-10T03:38:13;21.70;;;7.47;;
21330;SDS011;10824;51.632;4.950;2023-05-10T03:40:40;17.90;;;7.15;;
21330;SDS011;10824;51.632;4.950;2023-05-10T03:43:07;15.50;;;7.07;;
21330;SDS011;10824;51.632;4.950;2023-05-10T03:45:35;20.00;;;8.02;;
21330;SDS011;10824;51.632;4.950;2023-05-10T03:48:03;28.73;;;8.10;;
21330;SDS011;10824;51.632;4.950;2023-05-10T03:50:31;24.88;;;10.13;;
21330;SDS011;10824;51.632;4.950;2023-05-10T03:52:58;22.55;;;9.30;;
21330;SDS011;10824;51.632;4.950;2023-05-10T03:55:26;26.95;;;11.70;;
21330;SDS011;10824;51.632;4.950;2023-05-10T03:57:54;23.77;;;9.10;;
21330;SDS011;10824;51.632;4.950;2023-05-10T04:00:22;21.85;;;9.55;;
21330;SDS011;10824;51.632;4.950;2023-05-10T04:02:53;19.02;;;8.68;;
21330;SDS011;10824;51.632;4.950;2023-05-10T04:05:20;30.08;;;10.25;;
21330;SDS011;10824;51.632;4.950;2023-05-10T04:07:47;23.10;;;9.50;;
21330;SDS011;10824;51.632;4.950;2023-05-10T04:10:15;20.75;;;8.85;;
21330;SDS011;10824;51.632;4.950;2023-05-10T04:12:43;22.98;;;8.80;;
21330;SDS011;10824;51.632;4.950;2023-05-10T04:15:10;21.88;;;9.48;;
21330;SDS011;10824;51.632;4.950;2023-05-10T04:17:37;20.08;;;9.00;;
21330;SDS011;10824;51.632;4.950;2023-05-10T04:20:04;17.65;;;8.23;;
21330;SDS011;10824;51.632;4.950;2023-05-10T04:22:32;15.40;;;7.50;;
21330;SDS011;10824;51.632;4.950;2023-05-10T04:24:59;14.25;;;6.60;;
21330;SDS011;10824;51.632;4.950;2023-05-10T04:27:26;19.35;;;6.68;;
21330;SDS011;10824;51.632;4.950;2023-05-10T04:29:53;15.93;;;7.03;;
21330;SDS011;10824;51.632;4.950;2023-05-10T04:32:20;15.25;;;6.50;;
21330;SDS011;10824;51.632;4.950;2023-05-10T04:34:47;14.15;;;5.97;;
21330;SDS011;10824;51.632;4.950;2023-05-10T04:37:15;15.50;;;6.20;;
21330;SDS011;10824;51.632;4.950;2023-05-10T04:39:44;14.18;;;6.72;;
21330;SDS011;10824;51.632;4.950;2023-05-10T04:42:11;13.98;;;6.13;;
21330;SDS011;10824;51.632;4.950;2023-05-10T04:44:41;10.32;;;5.25;;
21330;SDS011;10824;51.632;4.950;2023-05-10T04:47:08;13.32;;;4.72;;
21330;SDS011;10824;51.632;4.950;2023-05-10T04:49:37;13.77;;;5.30;;
21330;SDS011;10824;51.632;4.950;2023-05-10T04:52:04;10.07;;;4.47;;
21330;SDS011;10824;51.632;4.950;2023-05-10T04:54:31;15.40;;;5.60;;
21330;SDS011;10824;51.632;4.950;2023-05-10T04:56:58;10.10;;;4.15;;
21330;SDS011;10824;51.632;4.950;2023-05-10T04:59:25;11.10;;;5.13;;
21330;SDS011;10824;51.632;4.950;2023-05-10T05:01:52;15.70;;;6.43;;
21330;SDS011;10824;51.632;4.950;2023-05-10T05:04:19;12.32;;;5.40;;
21330;SDS011;10824;51.632;4.950;2023-05-10T05:06:46;13.13;;;5.22;;
21330;SDS011;10824;51.632;4.950;2023-05-10T05:09:13;15.23;;;5.10;;
21330;SDS011;10824;51.632;4.950;2023-05-10T05:11:40;13.73;;;5.20;;
21330;SDS011;10824;51.632;4.950;2023-05-10T05:14:07;11.20;;;5.50;;
21330;SDS011;10824;51.632;4.950;2023-05-10T05:16:35;15.65;;;7.28;;
21330;SDS011;10824;51.632;4.950;2023-05-10T05:19:02;13.00;;;5.57;;
21330;SDS011;10824;51.632;4.950;2023-05-10T05:21:29;12.95;;;6.32;;
21330;SDS011;10824;51.632;4.950;2023-05-10T05:23:58;14.65;;;7.10;;
21330;SDS011;10824;51.632;4.950;2023-05-10T05:26:26;15.73;;;5.85;;
21330;SDS011;10824;51.632;4.950;2023-05-10T05:28:53;23.38;;;7.90;;
21330;SDS011;10824;51.632;4.950;2023-05-10T05:31:23;18.95;;;7.25;;
21330;SDS011;10824;51.632;4.950;2023-05-10T05:33:52;14.40;;;6.22;;
21330;SDS011;10824;51.632;4.950;2023-05-10T05:36:20;18.77;;;7.53;;
21330;SDS011;10824;51.632;4.950;2023-05-10T05:38:48;19.65;;;8.38;;
21330;SDS011;10824;51.632;4.950;2023-05-10T05:41:15;20.13;;;8.30;;
21330;SDS011;10824;51.632;4.950;2023-05-10T05:43:42;20.75;;;8.30;;
21330;SDS011;10824;51.632;4.950;2023-05-10T05:46:09;21.95;;;8.60;;
21330;SDS011;10824;51.632;4.950;2023-05-10T05:48:36;21.63;;;8.95;;
21330;SDS011;10824;51.632;4.950;2023-05-10T05:51:03;18.40;;;7.95;;
21330;SDS011;10824;51.632;4.950;2023-05-10T05:53:32;18.27;;;8.35;;
21330;SDS011;10824;51.632;4.950;2023-05-10T05:55:59;20.45;;;9.50;;
21330;SDS011;10824;51.632;4.950;2023-05-10T05:58:26;16.20;;;8.32;;
21330;SDS011;10824;51.632;4.950;2023-05-10T06:00:54;22.30;;;9.75;;
21330;SDS011;10824;51.632;4.950;2023-05-10T06:03:21;19.48;;;8.48;;
21330;SDS011;10824;51.632;4.950;2023-05-10T06:05:48;16.20;;;8.10;;
21330;SDS011;10824;51.632;4.950;2023-05-10T06:08:15;22.77;;;6.28;;
21330;SDS011;10824;51.632;4.950;2023-05-10T06:10:42;17.50;;;7.75;;
21330;SDS011;10824;51.632;4.950;2023-05-10T06:13:09;15.25;;;8.57;;
21330;SDS011;10824;51.632;4.950;2023-05-10T06:15:37;26.10;;;7.43;;
21330;SDS011;10824;51.632;4.950;2023-05-10T06:18:04;13.32;;;6.30;;
21330;SDS011;10824;51.632;4.950;2023-05-10T06:20:32;12.32;;;6.13;;
21330;SDS011;10824;51.632;4.950;2023-05-10T06:22:59;14.40;;;5.95;;
21330;SDS011;10824;51.632;4.950;2023-05-10T06:25:26;11.88;;;5.22;;
21330;SDS011;10824;51.632;4.950;2023-05-10T06:27:53;13.40;;;5.93;;
21330;SDS011;10824;51.632;4.950;2023-05-10T06:30:24;13.00;;;6.25;;
21330;SDS011;10824;51.632;4.950;2023-05-10T06:32:55;11.32;;;5.38;;
21330;SDS011;10824;51.632;4.950;2023-05-10T06:35:22;10.50;;;4.68;;
21330;SDS011;10824;51.632;4.950;2023-05-10T06:37:49;7.93;;;4.20;;
21330;SDS011;10824;51.632;4.950;2023-05-10T06:40:17;11.35;;;4.80;;
21330;SDS011;10824;51.632;4.950;2023-05-10T06:42:45;9.27;;;4.60;;
21330;SDS011;10824;51.632;4.950;2023-05-10T06:45:13;7.03;;;3.08;;
21330;SDS011;10824;51.632;4.950;2023-05-10T06:47:41;8.07;;;3.80;;
21330;SDS011;10824;51.632;4.950;2023-05-10T06:50:09;6.80;;;2.80;;
21330;SDS011;10824;51.632;4.950;2023-05-10T06:52:38;12.32;;;4.05;;
21330;SDS011;10824;51.632;4.950;2023-05-10T06:55:05;7.40;;;4.72;;
21330;SDS011;10824;51.632;4.950;2023-05-10T06:57:32;7.03;;;3.50;;
21330;SDS011;10824;51.632;4.950;2023-05-10T07:00:02;5.85;;;3.50;;
21330;SDS011;10824;51.632;4.950;2023-05-10T07:02:31;8.23;;;3.50;;
21330;SDS011;10824;51.632;4.950;2023-05-10T07:04:59;7.75;;;3.47;;
21330;SDS011;10824;51.632;4.950;2023-05-10T07:07:54;7.43;;;3.92;;
21330;SDS011;10824;51.632;4.950;2023-05-10T07:10:22;4.93;;;3.67;;
21330;SDS011;10824;51.632;4.950;2023-05-10T07:12:49;9.23;;;2.95;;
21330;SDS011;10824;51.632;4.950;2023-05-10T07:15:16;4.43;;;2.55;;
21330;SDS011;10824;51.632;4.950;2023-05-10T07:17:44;4.50;;;2.47;;
21330;SDS011;10824;51.632;4.950;2023-05-10T07:20:12;5.18;;;2.85;;
21330;SDS011;10824;51.632;4.950;2023-05-10T07:22:39;5.68;;;1.90;;
21330;SDS011;10824;51.632;4.950;2023-05-10T07:25:06;5.72;;;2.72;;
21330;SDS011;10824;51.632;4.950;2023-05-10T07:27:33;2.38;;;1.85;;
21330;SDS011;10824;51.632;4.950;2023-05-10T07:30:00;3.30;;;1.73;;
21330;SDS011;10824;51.632;4.950;2023-05-10T07:32:27;3.17;;;1.65;;
21330;SDS011;10824;51.632;4.950;2023-05-10T07:34:55;2.78;;;1.88;;
21330;SDS011;10824;51.632;4.950;2023-05-10T07:37:22;2.58;;;1.33;;
21330;SDS011;10824;51.632;4.950;2023-05-10T07:39:49;3.83;;;2.05;;
21330;SDS011;10824;51.632;4.950;2023-05-10T07:42:16;4.25;;;1.60;;
21330;SDS011;10824;51.632;4.950;2023-05-10T07:44:43;3.08;;;1.70;;
21330;SDS011;10824;51.632;4.950;2023-05-10T07:47:10;4.22;;;1.50;;
21330;SDS011;10824;51.632;4.950;2023-05-10T07:49:37;4.15;;;1.40;;
21330;SDS011;10824;51.632;4.950;2023-05-10T07:52:04;2.00;;;1.40;;
21330;SDS011;10824;51.632;4.950;2023-05-10T07:54:31;3.65;;;1.40;;
21330;SDS011;10824;51.632;4.950;2023-05-10T07:56:59;4.22;;;1.70;;
21330;SDS011;10824;51.632;4.950;2023-05-10T07:59:27;3.72;;;1.63;;
21330;SDS011;10824;51.632;4.950;2023-05-10T08:01:54;3.17;;;1.58;;
21330;SDS011;10824;51.632;4.950;2023-05-10T08:04:21;2.17;;;1.52;;
21330;SDS011;10824;51.632;4.950;2023-05-10T08:06:48;3.28;;;1.98;;
21330;SDS011;10824;51.632;4.950;2023-05-10T08:09:15;5.60;;;3.63;;
21330;SDS011;10824;51.632;4.950;2023-05-10T08:11:44;4.43;;;1.58;;
21330;SDS011;10824;51.632;4.950;2023-05-10T08:14:11;3.22;;;1.45;;
21330;SDS011;10824;51.632;4.950;2023-05-10T08:16:38;5.32;;;2.00;;
21330;SDS011;10824;51.632;4.950;2023-05-10T08:19:05;3.17;;;1.73;;
21330;SDS011;10824;51.632;4.950;2023-05-10T08:21:33;3.03;;;1.80;;
21330;SDS011;10824;51.632;4.950;2023-05-10T08:24:00;8.10;;;2.22;;
21330;SDS011;10824;51.632;4.950;2023-05-10T08:26:27;6.07;;;2.13;;
21330;SDS011;10824;51.632;4.950;2023-05-10T08:28:54;4.75;;;2.33;;
21330;SDS011;10824;51.632;4.950;2023-05-10T08:31:21;6.38;;;2.05;;
21330;SDS011;10824;51.632;4.950;2023-05-10T08:33:48;3.75;;;2.03;;
21330;SDS011;10824;51.632;4.950;2023-05-10T08:36:18;5.72;;;1.92;;
21330;SDS011;10824;51.632;4.950;2023-05-10T08:38:50;3.17;;;1.98;;
21330;SDS011;10824;51.632;4.950;2023-05-10T08:41:21;2.63;;;1.75;;
21330;SDS011;10824;51.632;4.950;2023-05-10T08:43:51;3.35;;;1.85;;
21330;SDS011;10824;51.632;4.950;2023-05-10T08:46:20;3.05;;;1.90;;
21330;SDS011;10824;51.632;4.950;2023-05-10T08:48:49;3.75;;;1.67;;
21330;SDS011;10824;51.632;4.950;2023-05-10T08:51:18;2.83;;;1.67;;
21330;SDS011;10824;51.632;4.950;2023-05-10T08:53:48;8.50;;;2.08;;
21330;SDS011;10824;51.632;4.950;2023-05-10T08:56:15;3.25;;;1.83;;
21330;SDS011;10824;51.632;4.950;2023-05-10T08:58:44;2.33;;;1.58;;
21330;SDS011;10824;51.632;4.950;2023-05-10T09:01:11;2.25;;;1.48;;
21330;SDS011;10824;51.632;4.950;2023-05-10T09:03:40;2.42;;;1.52;;
21330;SDS011;10824;51.632;4.950;2023-05-10T09:06:07;2.75;;;1.63;;
21330;SDS011;10824;51.632;4.950;2023-05-10T09:08:34;3.83;;;1.05;;
21330;SDS011;10824;51.632;4.950;2023-05-10T09:11:03;3.60;;;1.42;;
21330;SDS011;10824;51.632;4.950;2023-05-10T09:13:31;2.03;;;1.40;;
21330;SDS011;10824;51.632;4.950;2023-05-10T09:16:00;5.03;;;1.70;;
21330;SDS011;10824;51.632;4.950;2023-05-10T09:18:46;2.75;;;1.63;;
21330;SDS011;10824;51.632;4.950;2023-05-10T09:21:13;2.40;;;1.45;;
21330;SDS011;10824;51.632;4.950;2023-05-10T09:23:47;5.60;;;1.90;;
21330;SDS011;10824;51.632;4.950;2023-05-10T09:26:17;2.90;;;1.30;;
21330;SDS011;10824;51.632;4.950;2023-05-10T09:28:53;2.10;;;1.42;;
21330;SDS011;10824;51.632;4.950;2023-05-10T09:31:22;5.85;;;1.65;;
21330;SDS011;10824;51.632;4.950;2023-05-10T09:34:05;3.30;;;2.13;;
21330;SDS011;10824;51.632;4.950;2023-05-10T09:36:33;4.15;;;1.80;;
21330;SDS011;10824;51.632;4.950;2023-05-10T09:39:01;3.50;;;2.15;;
21330;SDS011;10824;51.632;4.950;2023-05-10T09:41:28;4.88;;;1.50;;
21330;SDS011;10824;51.632;4.950;2023-05-10T09:43:57;2.85;;;1.70;;
21330;SDS011;10824;51.632;4.950;2023-05-10T09:46:24;3.00;;;1.73;;
21330;SDS011;10824;51.632;4.950;2023-05-10T09:48:53;4.32;;;1.65;;
21330;SDS011;10824;51.632;4.950;2023-05-10T09:51:21;7.32;;;3.78;;
21330;SDS011;10824;51.632;4.950;2023-05-10T09:54:08;3.00;;;1.90;;
21330;SDS011;10824;51.632;4.950;2023-05-10T09:56:40;3.25;;;1.70;;
21330;SDS011;10824;51.632;4.950;2023-05-10T09:59:09;3.15;;;2.10;;
21330;SDS011;10824;51.632;4.950;2023-05-10T10:01:38;4.47;;;1.50;;
21330;SDS011;10824;51.632;4.950;2023-05-10T10:04:10;1.60;;;1.40;;
21330;SDS011;10824;51.632;4.950;2023-05-10T10:06:39;2.53;;;1.10;;
21330;SDS011;10824;51.632;4.950;2023-05-10T10:09:07;1.10;;;1.00;;
21330;SDS011;10824;51.632;4.950;2023-05-10T10:11:37;1.60;;;1.20;;
21330;SDS011;10824;51.632;4.950;2023-05-10T10:14:06;3.50;;;1.00;;
21330;SDS011;10824;51.632;4.950;2023-05-10T10:16:33;1.88;;;1.10;;
21330;SDS011;10824;51.632;4.950;2023-05-10T10:19:00;3.40;;;1.50;;
21330;SDS011;10824;51.632;4.950;2023-05-10T10:21:30;1.77;;;1.00;;
21330;SDS011;10824;51.632;4.950;2023-05-10T10:23:59;2.00;;;1.00;;
21330;SDS011;10824;51.632;4.950;2023-05-10T10:26:28;4.20;;;0.93;;
21330;SDS011;10824;51.632;4.950;2023-05-10T10:31:41;1.73;;;1.20;;
21330;SDS011;10824;51.632;4.950;2023-05-10T10:34:18;3.38;;;1.25;;
21330;SDS011;10824;51.632;4.950;2023-05-10T10:36:54;1.17;;;1.00;;
21330;SDS011;10824;51.632;4.950;2023-05-10T10:39:23;2.55;;;1.10;;
21330;SDS011;10824;51.632;4.950;2023-05-10T10:41:55;1.15;;;1.00;;
21330;SDS011;10824;51.632;4.950;2023-05-10T10:44:25;1.67;;;1.42;;
21330;SDS011;10824;51.632;4.950;2023-05-10T10:52:28;1.80;;;1.08;;
21330;SDS011;10824;51.632;4.950;2023-05-10T10:55:17;1.60;;;0.77;;
21330;SDS011;10824;51.632;4.950;2023-05-10T11:02:47;4.55;;;1.13;;
21330;SDS011;10824;51.632;4.950;2023-05-10T11:11:09;1.20;;;0.80;;
21330;SDS011;10824;51.632;4.950;2023-05-10T11:13:42;1.83;;;1.10;;
21330;SDS011;10824;51.632;4.950;2023-05-10T11:16:15;1.60;;;1.20;;
21330;SDS011;10824;51.632;4.950;2023-05-10T11:19:06;3.10;;;1.13;;
21330;SDS011;10824;51.632;4.950;2023-05-10T11:21:45;1.63;;;0.88;;
21330;SDS011;10824;51.632;4.950;2023-05-10T11:24:22;1.88;;;1.20;;
21330;SDS011;10824;51.632;4.950;2023-05-10T11:26:53;2.35;;;1.00;;
21330;SDS011;10824;51.632;4.950;2023-05-10T11:29:20;2.80;;;1.20;;
21330;SDS011;10824;51.632;4.950;2023-05-10T11:31:48;1.50;;;0.90;;
21330;SDS011;10824;51.632;4.950;2023-05-10T11:34:25;2.53;;;0.93;;
21330;SDS011;10824;51.632;4.950;2023-05-10T11:36:54;2.72;;;1.40;;
21330;SDS011;10824;51.632;4.950;2023-05-10T11:39:31;3.03;;;1.23;;
21330;SDS011;10824;51.632;4.950;2023-05-10T11:42:00;2.88;;;1.42;;
21330;SDS011;10824;51.632;4.950;2023-05-10T11:44:30;2.35;;;1.40;;
21330;SDS011;10824;51.632;4.950;2023-05-10T11:47:01;3.63;;;1.83;;
21330;SDS011;10824;51.632;4.950;2023-05-10T11:49:29;8.30;;;1.50;;
21330;SDS011;10824;51.632;4.950;2023-05-10T11:52:06;2.53;;;1.13;;
21330;SDS011;10824;51.632;4.950;2023-05-10T11:54:34;1.92;;;1.30;;
21330;SDS011;10824;51.632;4.950;2023-05-10T11:57:02;4.90;;;1.65;;
21330;SDS011;10824;51.632;4.950;2023-05-10T11:59:30;2.45;;;1.40;;
21330;SDS011;10824;51.632;4.950;2023-05-10T12:01:57;4.22;;;1.40;;
21330;SDS011;10824;51.632;4.950;2023-05-10T12:04:24;2.85;;;1.30;;
21330;SDS011;10824;51.632;4.950;2023-05-10T12:06:52;5.50;;;1.30;;
21330;SDS011;10824;51.632;4.950;2023-05-10T12:09:20;4.30;;;1.92;;
21330;SDS011;10824;51.632;4.950;2023-05-10T12:14:28;4.50;;;1.20;;
21330;SDS011;10824;51.632;4.950;2023-05-10T12:16:59;2.05;;;1.52;;
21330;SDS011;10824;51.632;4.950;2023-05-10T12:19:26;5.15;;;2.17;;
21330;SDS011;10824;51.632;4.950;2023-05-10T12:21:53;4.18;;;1.60;;
21330;SDS011;10824;51.632;4.950;2023-05-10T12:24:21;2.67;;;2.17;;
21330;SDS011;10824;51.632;4.950;2023-05-10T12:26:48;3.17;;;1.90;;
21330;SDS011;10824;51.632;4.950;2023-05-10T12:29:19;1.90;;;1.67;;
21330;SDS011;10824;51.632;4.950;2023-05-10T12:31:53;2.97;;;1.15;;
21330;SDS011;10824;51.632;4.950;2023-05-10T12:34:32;2.15;;;1.30;;
21330;SDS011;10824;51.632;4.950;2023-05-10T12:37:02;2.45;;;1.25;;
21330;SDS011;10824;51.632;4.950;2023-05-10T12:39:44;1.60;;;0.88;;
21330;SDS011;10824;51.632;4.950;2023-05-10T12:42:12;2.83;;;1.05;;
21330;SDS011;10824;51.632;4.950;2023-05-10T12:44:41;2.22;;;0.98;;
21330;SDS011;10824;51.632;4.950;2023-05-10T12:47:08;0.85;;;0.85;;
21330;SDS011;10824;51.632;4.950;2023-05-10T12:49:35;1.33;;;0.93;;
21330;SDS011;10824;51.632;4.950;2023-05-10T12:52:02;2.90;;;0.82;;
21330;SDS011;10824;51.632;4.950;2023-05-10T12:54:29;1.17;;;0.60;;
21330;SDS011;10824;51.632;4.950;2023-05-10T12:56:58;1.17;;;0.70;;
21330;SDS011;10824;51.632;4.950;2023-05-10T12:59:26;1.73;;;0.65;;
21330;SDS011;10824;51.632;4.950;2023-05-10T13:01:52;2.80;;;1.13;;
21330;SDS011;10824;51.632;4.950;2023-05-10T13:04:19;3.42;;;0.85;;
21330;SDS011;10824;51.632;4.950;2023-05-10T13:06:48;3.22;;;0.80;;
21330;SDS011;10824;51.632;4.950;2023-05-10T13:09:16;1.98;;;0.77;;
21330;SDS011;10824;51.632;4.950;2023-05-10T13:11:43;3.83;;;0.88;;
21330;SDS011;10824;51.632;4.950;2023-05-10T13:14:10;1.58;;;0.82;;
21330;SDS011;10824;51.632;4.950;2023-05-10T13:16:37;1.92;;;1.00;;
21330;SDS011;10824;51.632;4.950;2023-05-10T13:19:04;2.17;;;1.30;;
21330;SDS011;10824;51.632;4.950;2023-05-10T13:21:31;1.75;;;0.82;;
21330;SDS011;10824;51.632;4.950;2023-05-10T13:23:58;0.95;;;0.68;;
21330;SDS011;10824;51.632;4.950;2023-05-10T13:26:26;2.08;;;0.93;;
21330;SDS011;10824;51.632;4.950;2023-05-10T13:28:54;1.55;;;0.95;;
21330;SDS011;10824;51.632;4.950;2023-05-10T13:31:22;1.02;;;0.70;;
21330;SDS011;10824;51.632;4.950;2023-05-10T13:33:49;0.90;;;0.80;;
21330;SDS011;10824;51.632;4.950;2023-05-10T13:36:16;3.90;;;0.80;;
21330;SDS011;10824;51.632;4.950;2023-05-10T13:38:42;2.17;;;0.70;;
21330;SDS011;10824;51.632;4.950;2023-05-10T13:41:10;1.70;;;0.80;;
21330;SDS011;10824;51.632;4.950;2023-05-10T13:43:36;2.65;;;0.80;;
21330;SDS011;10824;51.632;4.950;2023-05-10T13:46:04;1.63;;;0.93;;
21330;SDS011;10824;51.632;4.950;2023-05-10T13:48:31;2.00;;;0.90;;
21330;SDS011;10824;51.632;4.950;2023-05-10T13:50:59;0.95;;;0.70;;
21330;SDS011;10824;51.632;4.950;2023-05-10T13:53:26;2.97;;;0.60;;
21330;SDS011;10824;51.632;4.950;2023-05-10T13:55:54;1.08;;;0.52;;
21330;SDS011;10824;51.632;4.950;2023-05-10T13:58:21;1.10;;;0.47;;
21330;SDS011;10824;51.632;4.950;2023-05-10T14:00:49;0.75;;;0.45;;
21330;SDS011;10824;51.632;4.950;2023-05-10T14:03:16;1.25;;;0.65;;
21330;SDS011;10824;51.632;4.950;2023-05-10T14:05:43;0.43;;;0.43;;
21330;SDS011;10824;51.632;4.950;2023-05-10T14:08:11;0.40;;;0.40;;
21330;SDS011;10824;51.632;4.950;2023-05-10T14:10:39;1.23;;;0.60;;
21330;SDS011;10824;51.632;4.950;2023-05-10T14:13:06;1.20;;;0.68;;
21330;SDS011;10824;51.632;4.950;2023-05-10T14:15:34;1.10;;;0.98;;
21330;SDS011;10824;51.632;4.950;2023-05-10T14:18:01;2.78;;;0.63;;
21330;SDS011;10824;51.632;4.950;2023-05-10T14:20:29;1.33;;;0.82;;
21330;SDS011;10824;51.632;4.950;2023-05-10T14:22:59;3.47;;;0.65;;
21330;SDS011;10824;51.632;4.950;2023-05-10T14:25:26;0.50;;;0.50;;
21330;SDS011;10824;51.632;4.950;2023-05-10T14:27:55;1.35;;;0.60;;
21330;SDS011;10824;51.632;4.950;2023-05-10T14:30:22;1.08;;;0.65;;
21330;SDS011;10824;51.632;4.950;2023-05-10T14:32:49;3.17;;;1.17;;
21330;SDS011;10824;51.632;4.950;2023-05-10T14:35:16;2.55;;;0.80;;
21330;SDS011;10824;51.632;4.950;2023-05-10T14:37:45;1.75;;;0.90;;
21330;SDS011;10824;51.632;4.950;2023-05-10T14:40:12;1.42;;;0.60;;
21330;SDS011;10824;51.632;4.950;2023-05-10T14:42:41;1.35;;;0.77;;
21330;SDS011;10824;51.632;4.950;2023-05-10T14:45:09;2.25;;;0.82;;
21330;SDS011;10824;51.632;4.950;2023-05-10T14:47:37;1.45;;;0.90;;
21330;SDS011;10824;51.632;4.950;2023-05-10T14:50:04;1.65;;;0.80;;
21330;SDS011;10824;51.632;4.950;2023-05-10T14:52:32;1.50;;;0.77;;
21330;SDS011;10824;51.632;4.950;2023-05-10T14:54:59;1.42;;;0.90;;
21330;SDS011;10824;51.632;4.950;2023-05-10T14:57:29;1.30;;;0.68;;
21330;SDS011;10824;51.632;4.950;2023-05-10T14:59:56;1.08;;;0.77;;
21330;SDS011;10824;51.632;4.950;2023-05-10T15:02:23;1.27;;;0.70;;
21330;SDS011;10824;51.632;4.950;2023-05-10T15:04:51;1.33;;;0.70;;
21330;SDS011;10824;51.632;4.950;2023-05-10T15:07:21;1.88;;;0.90;;
21330;SDS011;10824;51.632;4.950;2023-05-10T15:09:48;1.00;;;0.68;;
21330;SDS011;10824;51.632;4.950;2023-05-10T15:12:37;1.92;;;0.80;;
21330;SDS011;10824;51.632;4.950;2023-05-10T15:15:05;2.33;;;0.85;;
21330;SDS011;10824;51.632;4.950;2023-05-10T15:17:33;1.75;;;0.60;;
21330;SDS011;10824;51.632;4.950;2023-05-10T15:20:01;0.95;;;0.70;;
21330;SDS011;10824;51.632;4.950;2023-05-10T15:22:32;2.53;;;0.90;;
21330;SDS011;10824;51.632;4.950;2023-05-10T15:24:59;2.70;;;0.90;;
21330;SDS011;10824;51.632;4.950;2023-05-10T15:27:28;1.90;;;0.90;;
21330;SDS011;10824;51.632;4.950;2023-05-10T15:29:56;2.15;;;0.70;;
21330;SDS011;10824;51.632;4.950;2023-05-10T15:32:23;1.73;;;0.65;;
21330;SDS011;10824;51.632;4.950;2023-05-10T15:34:50;2.35;;;0.90;;